Latest Weather Observations for Naracoorte

IDS60801

Issued at 9:05 pm CST Thursday 17 April 2014 (issued every 30 minutes, with the page automatically refreshed every 10 minutes)

About weather observations | Map of weather stations | Latest weather observations for SA | Other Formats
Station Details ID: 026099 Name: NARACOORTE AERODROME Lat: -36.98 Lon: 140.73 Height: 49.72 m
Data from the previous 72 hours. | See also: Recent months at Naracoorte
Date/Time
CST
Temp
°C
App
Temp
°C
Dew
Point
Rel
Hum
%
Delta-T
°C
Wind Press
QNH
hPa
Press
MSL
hPa
Rain
since 9 am
mm
Dir
 
Spd
km/h
Gust
km/h
Spd
kts
Gust
kts
17/09:00pm 11.0 8.7 7.5 79 1.7 NNE 9 11 5 6 1019.1 1019.1 0.0
17/08:30pm 12.8 11.0 9.6 81 1.6 N 9 9 5 5 1019.1 - 0.0
17/08:00pm 12.8 11.0 9.4 80 1.7 N 9 9 5 5 1019.1 - 0.0
17/07:30pm 13.0 11.5 9.1 77 2.0 N 7 9 4 5 1019.2 - 0.0
17/07:00pm 14.4 12.5 9.2 71 2.7 NNW 9 11 5 6 1019.3 - 0.0
17/06:30pm 15.0 12.8 9.4 69 2.9 NW 11 15 6 8 1019.2 - 0.0
17/06:00pm 15.4 12.7 8.9 65 3.3 WNW 13 13 7 7 1019.1 1019.1 0.0
17/05:30pm 17.3 13.5 9.2 59 4.2 WNW 19 22 10 12 1019.2 - 0.0
17/05:00pm 18.6 14.8 9.1 54 5.0 WNW 19 26 10 14 1019.1 - 0.0
17/04:30pm 19.9 15.8 8.6 48 5.9 W 20 30 11 16 1019.2 - 0.0
17/04:00pm 19.9 14.5 7.9 46 6.2 W 26 33 14 18 1019.2 - 0.0
17/03:30pm 21.0 14.7 7.6 42 6.9 W 30 39 16 21 1019.1 - 0.0
17/03:00pm 21.7 15.4 7.5 40 7.3 WNW 30 39 16 21 1018.9 1018.9 0.0
17/02:30pm 22.5 16.6 7.5 38 7.8 W 28 39 15 21 1018.8 - 0.0
17/02:05pm 22.9 16.7 7.8 38 7.9 WNW 30 52 16 28 1018.8 - 0.0
17/02:00pm 22.4 16.6 8.1 40 7.5 WNW 28 39 15 21 1018.8 - 0.0
17/01:30pm 22.7 17.5 8.8 41 7.4 WNW 26 39 14 21 1018.9 - 0.0
17/01:00pm 23.0 18.2 9.0 41 7.5 WNW 24 33 13 18 1019.3 - 0.0
17/12:30pm 22.1 17.3 10.3 47 6.5 NW 26 37 14 20 1019.7 - 0.0
17/12:00pm 22.1 18.4 11.5 51 5.9 NW 22 30 12 16 1020.2 1020.2 0.0
17/11:30am 20.6 17.4 11.2 55 5.2 NNW 19 32 10 17 1020.6 - 0.0
17/11:00am 21.2 18.7 12.3 57 5.0 NNW 17 24 9 13 1020.8 - 0.0
17/10:30am 20.1 18.4 12.3 61 4.4 NNW 13 20 7 11 1020.8 - 0.0
17/10:00am 19.2 17.8 12.2 64 3.9 N 11 17 6 9 1021.1 - 0.0
17/09:30am 17.3 15.6 11.1 67 3.3 N 11 15 6 8 1021.1 - 0.0
17/09:00am 13.6 11.7 10.4 81 1.7 NNE 11 13 6 7 1021.3 1021.3 0.0
17/08:30am 12.4 10.4 10.3 87 1.1 NNE 11 13 6 7 1021.3 - 0.0
17/08:00am 11.3 9.2 9.9 91 0.7 NNE 11 13 6 7 1021.1 - 0.0
17/07:30am 10.8 9.0 9.6 92 0.6 N 9 13 5 7 1020.9 - 0.0
17/07:00am 9.9 7.7 9.4 97 0.2 NNE 11 13 6 7 1020.5 - 0.0
17/06:30am 6.7 3.8 6.3 97 0.2 NNE 11 13 6 7 1020.2 - 0.0
17/06:00am 6.6 5.7 6.2 97 0.2 CALM 0 0 0 0 1020.2 1020.2 0.0
17/05:30am 6.9 5.3 6.5 97 0.2 N 4 6 2 3 1019.9 - 0.0
17/05:00am 7.2 5.3 6.6 96 0.3 N 6 6 3 3 1019.9 - 0.0
17/04:30am 7.1 5.1 6.4 95 0.3 NNW 6 7 3 4 1019.9 - 0.0
17/04:00am 7.9 5.9 7.0 94 0.4 N 7 7 4 4 1019.6 - 0.0
17/03:30am 9.6 7.9 8.4 92 0.6 N 7 11 4 6 1019.4 - 0.0
17/03:00am 9.9 7.5 8.8 93 0.5 N 11 15 6 8 1019.2 1019.2 0.0
17/02:30am 9.9 7.5 8.8 93 0.5 NNE 11 13 6 7 1019.3 - 0.0
17/02:00am 9.7 7.3 8.8 94 0.4 N 11 13 6 7 1019.5 - 0.0
17/01:30am 10.3 8.5 9.4 94 0.4 N 9 11 5 6 1019.8 - 0.0
17/01:00am 9.4 7.7 8.5 94 0.4 NNE 7 7 4 4 1019.7 - 0.0
17/12:30am 9.0 7.4 7.8 92 0.6 NNE 6 7 3 4 1019.7 - 0.0
17/12:00am 10.2 8.3 9.1 93 0.5 NE 9 11 5 6 1019.6 1019.6 0.0
 
Date/Time
CST
Temp
°C
App
Temp
°C
Dew
Point
Rel
Hum
%
Delta-T
°C
Wind Press
QNH
hPa
Press
MSL
hPa
Rain
since 9 am
mm
Dir
 
Spd
km/h
Gust
km/h
Spd
kts
Gust
kts
16/11:30pm 10.2 10.1 9.4 95 0.4 CALM 0 0 0 0 1019.8 - 0.0
16/11:00pm 7.8 7.0 6.6 92 0.6 CALM 0 0 0 0 1020.0 - 0.0
16/10:30pm 8.1 7.4 7.0 93 0.5 CALM 0 0 0 0 1020.0 - 0.0
16/10:00pm 9.4 8.8 7.5 88 0.9 CALM 0 0 0 0 1020.2 - 0.0
16/09:30pm 10.1 9.6 7.9 86 1.1 CALM 0 0 0 0 1020.3 - 0.0
16/09:00pm 11.7 11.1 9.1 84 1.3 E 2 6 1 3 1020.3 1020.3 0.0
16/08:30pm 11.9 10.5 9.5 85 1.2 ENE 7 9 4 5 1020.1 - 0.0
16/08:00pm 12.7 11.5 10.2 85 1.3 E 7 9 4 5 1020.1 - 0.0
16/07:30pm 13.5 11.9 10.3 81 1.7 SSE 9 13 5 7 1019.9 - 0.0
16/07:00pm 14.8 12.5 10.6 76 2.2 SSE 13 17 7 9 1019.8 - 0.0
16/06:30pm 15.4 12.0 10.4 72 2.6 S 19 22 10 12 1019.6 - 0.0
16/06:00pm 16.2 13.0 9.8 66 3.3 S 17 20 9 11 1019.1 1019.1 0.0
16/05:30pm 18.4 16.0 8.7 53 5.0 SW 11 13 6 7 1019.1 - 0.0
16/05:00pm 19.3 17.4 9.2 52 5.3 S 9 13 5 7 1018.9 - 0.0
16/04:30pm 19.4 17.2 9.3 52 5.3 SSW 11 15 6 8 1018.6 - 0.0
16/04:00pm 20.4 14.8 8.7 47 6.2 WSW 28 35 15 19 1019.4 - 0.0
16/03:30pm 21.2 15.8 8.1 43 6.8 W 26 32 14 17 1019.0 - 0.0
16/03:00pm 22.5 16.7 7.9 39 7.6 SW 28 39 15 21 1018.6 1018.6 0.0
16/02:30pm 24.2 18.8 7.8 35 8.7 W 26 33 14 18 1018.4 - 0.0
16/02:00pm 22.8 18.3 8.5 40 7.6 W 22 32 12 17 1018.4 - 0.0
16/01:30pm 23.1 18.4 7.6 37 8.1 NW 22 32 12 17 1018.6 - 0.0
16/01:00pm 22.7 17.7 8.0 39 7.7 NW 24 35 13 19 1018.8 - 0.0
16/12:30pm 22.6 17.9 7.6 38 7.8 WNW 22 32 12 17 1019.1 - 0.0
16/12:00pm 21.0 16.0 8.0 43 6.8 WNW 24 35 13 19 1019.5 1019.5 0.0
16/11:30am 21.7 17.5 8.2 42 7.1 NW 20 28 11 15 1019.8 - 0.0
16/11:00am 20.3 16.5 8.9 48 6.0 NW 19 24 10 13 1020.0 - 0.0
16/10:30am 19.2 15.7 8.8 51 5.4 NW 17 24 9 13 1020.1 - 0.0
16/10:00am 18.3 15.4 9.6 57 4.6 NNW 15 20 8 11 1020.4 - 0.0
16/09:30am 17.2 14.2 9.1 59 4.2 N 15 22 8 12 1020.5 - 0.0
16/09:00am 15.0 12.4 10.6 75 2.3 N 15 19 8 10 1020.7 1020.7 0.2
16/08:30am 12.1 9.7 10.0 87 1.1 N 13 19 7 10 1020.9 - 0.2
16/08:00am 10.5 7.9 9.4 93 0.6 N 13 19 7 10 1020.6 - 0.2
16/07:30am 9.8 7.6 9.3 97 0.2 N 11 15 6 8 1020.7 - 0.2
16/07:00am 7.1 6.4 6.8 98 0.1 CALM 0 7 0 4 1020.7 - 0.2
16/06:30am 5.7 4.7 5.4 98 0.1 CALM 0 0 0 0 1020.6 - 0.2
16/06:00am 5.5 3.6 5.1 97 0.2 N 4 9 2 5 1020.6 1020.6 0.2
16/05:30am 9.0 7.3 8.5 97 0.2 NNE 7 9 4 5 1020.3 - 0.2
16/05:00am 9.4 7.5 9.1 98 0.1 NE 9 11 5 6 1020.1 - 0.2
16/04:30am 6.5 5.2 6.2 98 0.1 NNE 2 6 1 3 1019.8 - 0.2
16/04:00am 5.9 4.9 5.6 98 0.1 CALM 0 0 0 0 1020.2 - 0.2
16/03:30am 5.7 4.7 5.4 98 0.1 CALM 0 0 0 0 1020.6 - 0.2
16/03:00am 5.8 3.6 5.5 98 0.1 SE 6 7 3 4 1020.8 1020.8 0.2
16/02:30am 5.5 2.7 5.2 98 0.1 S 9 13 5 7 1021.1 - 0.2
16/02:00am 5.7 2.9 5.3 97 0.2 SSE 9 9 5 5 1021.1 - 0.2
16/01:30am 6.5 3.9 6.1 97 0.2 SE 9 11 5 6 1021.6 - 0.2
16/01:00am 6.6 3.6 6.2 97 0.2 SSE 11 13 6 7 1021.8 - 0.2
16/12:30am 7.1 3.5 6.7 97 0.2 S 15 17 8 9 1021.9 - 0.2
16/12:00am 7.2 4.3 6.6 96 0.3 S 11 13 6 7 1021.6 1021.6 0.2
 
Date/Time
CST
Temp
°C
App
Temp
°C
Dew
Point
Rel
Hum
%
Delta-T
°C
Wind Press
QNH
hPa
Press
MSL
hPa
Rain
since 9 am
mm
Dir
 
Spd
km/h
Gust
km/h
Spd
kts
Gust
kts
15/11:30pm 8.1 5.1 7.5 96 0.3 S 13 13 7 7 1021.7 - 0.2
15/11:00pm 8.4 5.8 7.6 95 0.4 SSE 11 13 6 7 1021.8 - 0.2
15/10:30pm 9.5 7.1 8.6 94 0.4 SSE 11 11 6 6 1022.3 - 0.2
15/10:00pm 10.2 8.0 9.3 94 0.4 SE 11 15 6 8 1022.5 - 0.2
15/09:30pm 10.4 7.5 9.6 95 0.4 SSE 15 17 8 9 1022.7 - 0.2
15/09:00pm 9.9 7.1 8.7 92 0.6 SSE 13 15 7 8 1022.7 1022.7 0.2
15/08:30pm 11.0 8.4 9.3 89 0.9 S 13 15 7 8 1022.5 - 0.2
15/08:00pm 12.2 9.0 10.1 87 1.1 S 17 19 9 10 1022.4 - 0.2
15/07:30pm 12.9 10.1 9.9 82 1.5 SSE 15 17 8 9 1022.2 - 0.2
15/07:00pm 14.2 11.5 10.4 78 2.0 SSE 15 19 8 10 1022.4 - 0.2
15/06:30pm 14.8 12.5 10.4 75 2.3 S 13 15 7 8 1022.3 - 0.2
15/06:00pm 16.4 13.4 10.7 69 3.0 S 17 20 9 11 1022.0 1022.0 0.2
15/05:30pm 17.2 14.5 8.9 58 4.3 S 13 17 7 9 1021.7 - 0.2
15/05:00pm 18.8 15.4 9.3 54 5.0 SSE 17 19 9 10 1021.4 - 0.2
15/04:30pm 20.9 17.1 9.2 47 6.2 S 19 24 10 13 1021.3 - 0.2
15/04:00pm 20.2 16.7 7.2 43 6.6 SE 15 20 8 11 1021.4 - 0.2
15/03:30pm 21.8 18.6 8.3 42 7.1 SSE 15 22 8 12 1021.3 - 0.2
15/03:00pm 22.1 19.1 7.5 39 7.6 S 13 22 7 12 1021.4 1021.4 0.2
15/02:30pm 22.2 18.0 7.6 39 7.6 S 19 24 10 13 1021.4 - 0.2
15/02:00pm 20.1 15.8 7.8 45 6.3 S 20 32 11 17 1021.7 - 0.2
15/01:30pm 22.0 18.9 8.9 43 7.0 SE 15 22 8 12 1021.9 - 0.2
15/01:00pm 21.1 16.6 8.4 44 6.7 SE 22 30 12 16 1022.2 - 0.2
15/12:30pm 20.0 15.9 8.7 48 5.9 S 20 28 11 15 1022.9 - 0.2
15/12:00pm 20.2 16.7 10.3 53 5.3 S 19 26 10 14 1023.2 1023.2 0.2
15/11:30am 19.1 16.1 10.6 58 4.6 SSE 17 28 9 15 1023.8 - 0.0
15/11:00am 18.8 16.1 11.6 63 4.0 S 17 24 9 13 1024.3 - 0.0
15/10:30am 18.4 16.7 12.4 68 3.3 S 13 20 7 11 1024.6 - 0.0
15/10:00am 15.5 13.6 11.9 79 2.0 S 13 20 7 11 1025.0 - 0.0
15/09:30am 13.7 11.4 11.9 89 1.0 SSE 15 20 8 11 1025.1 - 0.0
15/09:00am 11.4 9.7 11.2 99 0.1 S 11 15 6 8 1025.2 1025.2 0.0
15/08:30am 9.8 8.4 9.7 99 0.1 SSE 7 9 4 5 1025.2 - 0.0
15/08:00am 8.3 5.8 8.2 99 0.0 S 11 15 6 8 1025.2 - 0.0
15/07:30am 7.2 5.4 7.1 99 0.0 SSE 6 7 3 4 1024.9 - 0.0
15/07:00am 6.9 4.5 6.8 99 0.0 SSE 9 11 5 6 1024.8 - 0.0
15/06:30am 6.1 3.9 6.0 99 0.0 S 7 9 4 5 1024.6 - 0.0
15/06:00am 6.4 4.4 6.3 99 0.0 SSE 6 9 3 5 1024.5 1024.5 0.0
15/05:30am 6.2 4.0 6.1 99 0.0 S 7 9 4 5 1024.5 - 0.0
15/05:00am 6.5 4.3 6.4 99 0.0 SSE 7 9 4 5 1024.3 - 0.0
15/04:30am 6.5 3.6 6.4 99 0.0 S 11 13 6 7 1024.3 - 0.0
15/04:00am 6.7 4.2 6.4 98 0.1 SSE 9 9 5 5 1024.1 - 0.0
15/03:30am 7.3 4.9 7.0 98 0.1 SSE 9 13 5 7 1024.0 - 0.0
15/03:00am 8.3 5.0 8.0 98 0.1 SSE 15 19 8 10 1024.0 1024.0 0.0
15/02:30am 7.3 3.8 7.0 98 0.1 S 15 17 8 9 1024.2 - 0.0
15/02:00am 7.0 4.1 6.7 98 0.1 SSE 11 13 6 7 1024.2 - 0.0
15/01:30am 7.2 4.4 6.9 98 0.1 S 11 15 6 8 1024.2 - 0.0
15/01:00am 7.6 5.2 7.2 97 0.2 SSE 9 13 5 7 1024.2 - 0.0
15/12:30am 7.9 4.5 7.5 97 0.2 SSE 15 17 8 9 1024.2 - 0.0
15/12:00am 7.5 5.5 6.9 96 0.3 SSE 7 9 4 5 1024.2 1024.2 0.0
 
Date/Time
CST
Temp
°C
App
Temp
°C
Dew
Point
Rel
Hum
%
Delta-T
°C
Wind Press
QNH
hPa
Press
MSL
hPa
Rain
since 9 am
mm
Dir
 
Spd
km/h
Gust
km/h
Spd
kts
Gust
kts
14/11:30pm 7.9 5.5 7.1 95 0.4 SSE 9 11 5 6 1024.2 - 0.0
14/11:00pm 8.6 5.6 7.8 95 0.4 SSE 13 15 7 8 1024.3 - 0.0
14/10:30pm 9.6 6.5 8.8 95 0.4 SSE 15 17 8 9 1024.4 - 0.0
14/10:00pm 10.2 6.8 9.3 94 0.4 SSE 17 19 9 10 1024.5 - 0.0
14/09:30pm 10.6 7.3 9.5 93 0.6 S 17 19 9 10 1024.3 - 0.0

Other Formats:

Comma delimited format used in spreadsheet applications
http://www.bom.gov.au/fwo/IDS60801/IDS60801.94820.axf

JavaScript Object Notation format (JSON) in row-major order
http://www.bom.gov.au/fwo/IDS60801/IDS60801.94820.json